sensor_id;sensor_type;location;lat;lon;timestamp;P1;durP1;ratioP1;P2;durP2;ratioP2
14584;SDS011;7379;51.506;11.876;2023-03-26T00:01:59;1.20;;;1.10;;
14584;SDS011;7379;51.506;11.876;2023-03-26T00:04:25;1.80;;;1.30;;
14584;SDS011;7379;51.506;11.876;2023-03-26T00:06:52;1.35;;;1.23;;
14584;SDS011;7379;51.506;11.876;2023-03-26T00:09:20;0.90;;;0.90;;
14584;SDS011;7379;51.506;11.876;2023-03-26T00:11:47;1.10;;;1.00;;
14584;SDS011;7379;51.506;11.876;2023-03-26T00:14:14;1.25;;;0.98;;
14584;SDS011;7379;51.506;11.876;2023-03-26T00:16:41;1.40;;;1.23;;
14584;SDS011;7379;51.506;11.876;2023-03-26T00:19:10;1.67;;;0.90;;
14584;SDS011;7379;51.506;11.876;2023-03-26T00:21:38;0.85;;;0.85;;
14584;SDS011;7379;51.506;11.876;2023-03-26T00:24:06;0.82;;;0.82;;
14584;SDS011;7379;51.506;11.876;2023-03-26T00:26:35;1.00;;;0.90;;
14584;SDS011;7379;51.506;11.876;2023-03-26T00:29:03;1.00;;;1.00;;
14584;SDS011;7379;51.506;11.876;2023-03-26T00:31:30;1.17;;;0.80;;
14584;SDS011;7379;51.506;11.876;2023-03-26T00:33:58;1.00;;;1.00;;
14584;SDS011;7379;51.506;11.876;2023-03-26T00:36:28;1.45;;;1.10;;
14584;SDS011;7379;51.506;11.876;2023-03-26T00:38:56;2.08;;;1.00;;
14584;SDS011;7379;51.506;11.876;2023-03-26T00:41:23;1.10;;;1.00;;
14584;SDS011;7379;51.506;11.876;2023-03-26T00:43:55;0.70;;;0.70;;
14584;SDS011;7379;51.506;11.876;2023-03-26T00:46:23;0.80;;;0.80;;
14584;SDS011;7379;51.506;11.876;2023-03-26T00:48:51;1.10;;;0.85;;
14584;SDS011;7379;51.506;11.876;2023-03-26T00:51:19;0.88;;;0.88;;
14584;SDS011;7379;51.506;11.876;2023-03-26T00:53:48;0.90;;;0.90;;
14584;SDS011;7379;51.506;11.876;2023-03-26T00:56:15;1.90;;;1.10;;
14584;SDS011;7379;51.506;11.876;2023-03-26T00:58:43;2.17;;;1.20;;
14584;SDS011;7379;51.506;11.876;2023-03-26T01:01:12;1.30;;;0.98;;
14584;SDS011;7379;51.506;11.876;2023-03-26T01:03:41;1.05;;;0.98;;
14584;SDS011;7379;51.506;11.876;2023-03-26T01:06:10;1.10;;;0.98;;
14584;SDS011;7379;51.506;11.876;2023-03-26T01:08:40;0.95;;;0.95;;
14584;SDS011;7379;51.506;11.876;2023-03-26T01:11:12;1.42;;;0.95;;
14584;SDS011;7379;51.506;11.876;2023-03-26T01:13:42;0.73;;;0.73;;
14584;SDS011;7379;51.506;11.876;2023-03-26T01:16:14;1.10;;;0.98;;
14584;SDS011;7379;51.506;11.876;2023-03-26T01:18:46;0.93;;;0.90;;
14584;SDS011;7379;51.506;11.876;2023-03-26T01:21:16;1.02;;;0.93;;
14584;SDS011;7379;51.506;11.876;2023-03-26T01:23:48;1.88;;;1.00;;
14584;SDS011;7379;51.506;11.876;2023-03-26T01:26:26;1.00;;;0.90;;
14584;SDS011;7379;51.506;11.876;2023-03-26T01:29:05;1.23;;;0.73;;
14584;SDS011;7379;51.506;11.876;2023-03-26T01:31:42;1.02;;;0.93;;
14584;SDS011;7379;51.506;11.876;2023-03-26T01:34:18;1.20;;;1.10;;
14584;SDS011;7379;51.506;11.876;2023-03-26T01:36:55;1.08;;;0.98;;
14584;SDS011;7379;51.506;11.876;2023-03-26T01:39:29;1.15;;;1.10;;
14584;SDS011;7379;51.506;11.876;2023-03-26T01:42:04;1.10;;;1.00;;
14584;SDS011;7379;51.506;11.876;2023-03-26T01:44:35;1.13;;;1.10;;
14584;SDS011;7379;51.506;11.876;2023-03-26T01:47:07;1.23;;;1.13;;
14584;SDS011;7379;51.506;11.876;2023-03-26T01:49:36;0.90;;;0.90;;
14584;SDS011;7379;51.506;11.876;2023-03-26T01:52:04;1.25;;;0.90;;
14584;SDS011;7379;51.506;11.876;2023-03-26T01:54:39;1.58;;;1.02;;
14584;SDS011;7379;51.506;11.876;2023-03-26T01:57:08;1.20;;;1.10;;
14584;SDS011;7379;51.506;11.876;2023-03-26T01:59:53;1.92;;;1.40;;
14584;SDS011;7379;51.506;11.876;2023-03-26T02:02:32;1.20;;;1.10;;
14584;SDS011;7379;51.506;11.876;2023-03-26T02:05:07;1.10;;;1.00;;
14584;SDS011;7379;51.506;11.876;2023-03-26T02:07:42;1.58;;;1.17;;
14584;SDS011;7379;51.506;11.876;2023-03-26T02:10:14;2.08;;;1.30;;
14584;SDS011;7379;51.506;11.876;2023-03-26T02:12:45;2.07;;;1.27;;
14584;SDS011;7379;51.506;11.876;2023-03-26T02:15:12;1.55;;;1.25;;
14584;SDS011;7379;51.506;11.876;2023-03-26T02:17:39;1.95;;;1.30;;
14584;SDS011;7379;51.506;11.876;2023-03-26T02:20:06;1.93;;;1.20;;
14584;SDS011;7379;51.506;11.876;2023-03-26T02:22:35;1.50;;;1.27;;
14584;SDS011;7379;51.506;11.876;2023-03-26T02:25:05;2.10;;;1.27;;
14584;SDS011;7379;51.506;11.876;2023-03-26T02:27:35;1.40;;;1.30;;
14584;SDS011;7379;51.506;11.876;2023-03-26T02:30:02;2.07;;;1.30;;
14584;SDS011;7379;51.506;11.876;2023-03-26T02:32:31;1.90;;;1.25;;
14584;SDS011;7379;51.506;11.876;2023-03-26T02:34:59;3.10;;;1.30;;
14584;SDS011;7379;51.506;11.876;2023-03-26T02:37:25;2.13;;;1.23;;
14584;SDS011;7379;51.506;11.876;2023-03-26T02:39:54;1.73;;;1.40;;
14584;SDS011;7379;51.506;11.876;2023-03-26T02:42:21;1.97;;;1.27;;
14584;SDS011;7379;51.506;11.876;2023-03-26T02:44:49;1.37;;;1.13;;
14584;SDS011;7379;51.506;11.876;2023-03-26T02:47:16;1.67;;;1.45;;
14584;SDS011;7379;51.506;11.876;2023-03-26T02:49:43;1.43;;;1.20;;
14584;SDS011;7379;51.506;11.876;2023-03-26T02:52:10;1.20;;;1.10;;
14584;SDS011;7379;51.506;11.876;2023-03-26T02:54:37;2.67;;;1.40;;
14584;SDS011;7379;51.506;11.876;2023-03-26T02:57:03;2.17;;;1.43;;
14584;SDS011;7379;51.506;11.876;2023-03-26T02:59:30;1.40;;;1.30;;
14584;SDS011;7379;51.506;11.876;2023-03-26T03:01:58;1.97;;;1.27;;
14584;SDS011;7379;51.506;11.876;2023-03-26T03:04:25;2.70;;;1.57;;
14584;SDS011;7379;51.506;11.876;2023-03-26T03:06:52;2.07;;;1.23;;
14584;SDS011;7379;51.506;11.876;2023-03-26T03:09:21;1.93;;;1.30;;
14584;SDS011;7379;51.506;11.876;2023-03-26T03:11:48;2.20;;;1.50;;
14584;SDS011;7379;51.506;11.876;2023-03-26T03:14:16;2.07;;;1.60;;
14584;SDS011;7379;51.506;11.876;2023-03-26T03:16:42;1.47;;;1.37;;
14584;SDS011;7379;51.506;11.876;2023-03-26T03:19:11;2.77;;;1.50;;
14584;SDS011;7379;51.506;11.876;2023-03-26T03:21:38;2.97;;;1.80;;
14584;SDS011;7379;51.506;11.876;2023-03-26T03:24:06;2.07;;;1.40;;
14584;SDS011;7379;51.506;11.876;2023-03-26T03:26:33;1.97;;;1.57;;
14584;SDS011;7379;51.506;11.876;2023-03-26T03:29:00;2.17;;;1.67;;
14584;SDS011;7379;51.506;11.876;2023-03-26T03:31:27;4.00;;;1.60;;
14584;SDS011;7379;51.506;11.876;2023-03-26T03:33:54;2.40;;;1.50;;
14584;SDS011;7379;51.506;11.876;2023-03-26T03:36:22;2.37;;;1.60;;
14584;SDS011;7379;51.506;11.876;2023-03-26T03:38:51;3.10;;;1.90;;
14584;SDS011;7379;51.506;11.876;2023-03-26T03:41:18;1.80;;;1.60;;
14584;SDS011;7379;51.506;11.876;2023-03-26T03:43:45;1.80;;;1.45;;
14584;SDS011;7379;51.506;11.876;2023-03-26T03:46:11;3.07;;;1.90;;
14584;SDS011;7379;51.506;11.876;2023-03-26T03:48:38;4.20;;;1.83;;
14584;SDS011;7379;51.506;11.876;2023-03-26T03:51:05;3.53;;;1.90;;
14584;SDS011;7379;51.506;11.876;2023-03-26T03:53:33;2.57;;;1.87;;
14584;SDS011;7379;51.506;11.876;2023-03-26T03:56:04;2.10;;;1.57;;
14584;SDS011;7379;51.506;11.876;2023-03-26T03:58:34;2.97;;;1.80;;
14584;SDS011;7379;51.506;11.876;2023-03-26T04:01:01;2.30;;;1.70;;
14584;SDS011;7379;51.506;11.876;2023-03-26T04:03:28;3.40;;;1.77;;
14584;SDS011;7379;51.506;11.876;2023-03-26T04:05:55;2.28;;;1.67;;
14584;SDS011;7379;51.506;11.876;2023-03-26T04:08:23;3.10;;;1.90;;
14584;SDS011;7379;51.506;11.876;2023-03-26T04:10:51;2.67;;;1.60;;
14584;SDS011;7379;51.506;11.876;2023-03-26T04:13:18;4.67;;;2.00;;
14584;SDS011;7379;51.506;11.876;2023-03-26T04:15:45;2.40;;;1.83;;
14584;SDS011;7379;51.506;11.876;2023-03-26T04:18:12;3.33;;;2.00;;
14584;SDS011;7379;51.506;11.876;2023-03-26T04:20:39;3.93;;;1.97;;
14584;SDS011;7379;51.506;11.876;2023-03-26T04:23:10;2.30;;;1.70;;
14584;SDS011;7379;51.506;11.876;2023-03-26T04:25:38;2.00;;;1.70;;
14584;SDS011;7379;51.506;11.876;2023-03-26T04:28:07;2.50;;;1.67;;
14584;SDS011;7379;51.506;11.876;2023-03-26T04:30:35;2.63;;;1.80;;
14584;SDS011;7379;51.506;11.876;2023-03-26T04:33:08;2.97;;;2.07;;
14584;SDS011;7379;51.506;11.876;2023-03-26T04:35:39;2.37;;;1.80;;
14584;SDS011;7379;51.506;11.876;2023-03-26T04:38:08;3.67;;;1.80;;
14584;SDS011;7379;51.506;11.876;2023-03-26T04:40:36;5.27;;;2.13;;
14584;SDS011;7379;51.506;11.876;2023-03-26T04:43:03;3.13;;;1.93;;
14584;SDS011;7379;51.506;11.876;2023-03-26T04:45:31;3.38;;;1.70;;
14584;SDS011;7379;51.506;11.876;2023-03-26T04:47:58;2.90;;;1.80;;
14584;SDS011;7379;51.506;11.876;2023-03-26T04:50:26;3.03;;;1.80;;
14584;SDS011;7379;51.506;11.876;2023-03-26T04:52:53;3.67;;;2.03;;
14584;SDS011;7379;51.506;11.876;2023-03-26T04:55:23;3.30;;;1.87;;
14584;SDS011;7379;51.506;11.876;2023-03-26T04:57:54;2.63;;;1.90;;
14584;SDS011;7379;51.506;11.876;2023-03-26T05:00:24;3.33;;;1.90;;
14584;SDS011;7379;51.506;11.876;2023-03-26T05:02:53;3.53;;;1.83;;
14584;SDS011;7379;51.506;11.876;2023-03-26T05:05:22;2.53;;;1.83;;
14584;SDS011;7379;51.506;11.876;2023-03-26T05:07:49;2.53;;;1.63;;
14584;SDS011;7379;51.506;11.876;2023-03-26T05:10:16;3.67;;;1.80;;
14584;SDS011;7379;51.506;11.876;2023-03-26T05:12:44;2.37;;;1.70;;
14584;SDS011;7379;51.506;11.876;2023-03-26T05:15:11;3.03;;;2.07;;
14584;SDS011;7379;51.506;11.876;2023-03-26T05:17:39;2.75;;;1.80;;
14584;SDS011;7379;51.506;11.876;2023-03-26T05:20:09;3.73;;;2.00;;
14584;SDS011;7379;51.506;11.876;2023-03-26T05:22:42;2.40;;;1.70;;
14584;SDS011;7379;51.506;11.876;2023-03-26T05:25:09;3.27;;;2.03;;
14584;SDS011;7379;51.506;11.876;2023-03-26T05:27:36;2.08;;;1.70;;
14584;SDS011;7379;51.506;11.876;2023-03-26T05:30:03;2.40;;;1.80;;
14584;SDS011;7379;51.506;11.876;2023-03-26T05:32:32;2.57;;;1.80;;
14584;SDS011;7379;51.506;11.876;2023-03-26T05:35:00;1.90;;;1.50;;
14584;SDS011;7379;51.506;11.876;2023-03-26T05:37:29;3.60;;;1.90;;
14584;SDS011;7379;51.506;11.876;2023-03-26T05:39:56;2.17;;;1.63;;
14584;SDS011;7379;51.506;11.876;2023-03-26T05:42:23;2.20;;;1.73;;
14584;SDS011;7379;51.506;11.876;2023-03-26T05:44:50;2.17;;;1.75;;
14584;SDS011;7379;51.506;11.876;2023-03-26T05:47:17;1.83;;;1.63;;
14584;SDS011;7379;51.506;11.876;2023-03-26T05:49:44;2.83;;;1.60;;
14584;SDS011;7379;51.506;11.876;2023-03-26T05:52:11;3.30;;;1.73;;
14584;SDS011;7379;51.506;11.876;2023-03-26T05:54:41;2.80;;;1.70;;
14584;SDS011;7379;51.506;11.876;2023-03-26T05:57:08;2.63;;;1.70;;
14584;SDS011;7379;51.506;11.876;2023-03-26T05:59:35;2.20;;;1.60;;
14584;SDS011;7379;51.506;11.876;2023-03-26T06:02:02;2.10;;;1.50;;
14584;SDS011;7379;51.506;11.876;2023-03-26T06:04:28;2.93;;;1.60;;
14584;SDS011;7379;51.506;11.876;2023-03-26T06:06:56;2.97;;;1.90;;
14584;SDS011;7379;51.506;11.876;2023-03-26T06:09:22;2.77;;;1.80;;
14584;SDS011;7379;51.506;11.876;2023-03-26T06:11:51;2.23;;;1.83;;
14584;SDS011;7379;51.506;11.876;2023-03-26T06:14:17;2.20;;;1.60;;
14584;SDS011;7379;51.506;11.876;2023-03-26T06:16:44;1.93;;;1.60;;
14584;SDS011;7379;51.506;11.876;2023-03-26T06:19:11;2.08;;;1.48;;
14584;SDS011;7379;51.506;11.876;2023-03-26T06:21:38;2.43;;;1.80;;
14584;SDS011;7379;51.506;11.876;2023-03-26T06:24:05;3.47;;;1.67;;
14584;SDS011;7379;51.506;11.876;2023-03-26T06:26:32;1.97;;;1.77;;
14584;SDS011;7379;51.506;11.876;2023-03-26T06:29:01;3.57;;;1.93;;
14584;SDS011;7379;51.506;11.876;2023-03-26T06:31:28;1.83;;;1.70;;
14584;SDS011;7379;51.506;11.876;2023-03-26T06:33:55;3.27;;;1.80;;
14584;SDS011;7379;51.506;11.876;2023-03-26T06:36:21;2.93;;;1.53;;
14584;SDS011;7379;51.506;11.876;2023-03-26T06:38:48;2.00;;;1.75;;
14584;SDS011;7379;51.506;11.876;2023-03-26T06:41:15;1.70;;;1.60;;
14584;SDS011;7379;51.506;11.876;2023-03-26T06:43:42;2.47;;;1.90;;
14584;SDS011;7379;51.506;11.876;2023-03-26T06:46:10;1.60;;;1.50;;
14584;SDS011;7379;51.506;11.876;2023-03-26T06:48:37;1.63;;;1.53;;
14584;SDS011;7379;51.506;11.876;2023-03-26T06:51:04;1.90;;;1.70;;
14584;SDS011;7379;51.506;11.876;2023-03-26T06:53:31;2.83;;;1.80;;
14584;SDS011;7379;51.506;11.876;2023-03-26T06:55:58;1.53;;;1.43;;
14584;SDS011;7379;51.506;11.876;2023-03-26T06:58:26;2.07;;;1.63;;
14584;SDS011;7379;51.506;11.876;2023-03-26T07:00:54;2.23;;;1.50;;
14584;SDS011;7379;51.506;11.876;2023-03-26T07:03:22;3.00;;;1.77;;
14584;SDS011;7379;51.506;11.876;2023-03-26T07:05:49;2.43;;;1.80;;
14584;SDS011;7379;51.506;11.876;2023-03-26T07:08:16;2.33;;;1.83;;
14584;SDS011;7379;51.506;11.876;2023-03-26T07:10:43;2.97;;;1.90;;
14584;SDS011;7379;51.506;11.876;2023-03-26T07:13:10;2.63;;;2.00;;
14584;SDS011;7379;51.506;11.876;2023-03-26T07:15:37;2.10;;;1.90;;
14584;SDS011;7379;51.506;11.876;2023-03-26T07:18:04;1.93;;;1.70;;
14584;SDS011;7379;51.506;11.876;2023-03-26T07:20:32;2.93;;;1.90;;
14584;SDS011;7379;51.506;11.876;2023-03-26T07:23:00;3.00;;;1.90;;
14584;SDS011;7379;51.506;11.876;2023-03-26T07:25:27;2.27;;;1.80;;
14584;SDS011;7379;51.506;11.876;2023-03-26T07:27:58;2.63;;;1.97;;
14584;SDS011;7379;51.506;11.876;2023-03-26T07:30:32;2.27;;;1.90;;
14584;SDS011;7379;51.506;11.876;2023-03-26T07:33:07;3.00;;;1.90;;
14584;SDS011;7379;51.506;11.876;2023-03-26T07:35:41;3.22;;;1.90;;
14584;SDS011;7379;51.506;11.876;2023-03-26T07:38:26;3.63;;;1.90;;
14584;SDS011;7379;51.506;11.876;2023-03-26T07:41:03;3.00;;;1.83;;
14584;SDS011;7379;51.506;11.876;2023-03-26T07:43:39;2.72;;;1.98;;
14584;SDS011;7379;51.506;11.876;2023-03-26T07:46:14;3.50;;;2.03;;
14584;SDS011;7379;51.506;11.876;2023-03-26T07:48:43;3.13;;;2.33;;
14584;SDS011;7379;51.506;11.876;2023-03-26T07:51:14;3.63;;;2.17;;
14584;SDS011;7379;51.506;11.876;2023-03-26T07:53:42;2.90;;;2.13;;
14584;SDS011;7379;51.506;11.876;2023-03-26T07:56:10;3.40;;;1.90;;
14584;SDS011;7379;51.506;11.876;2023-03-26T07:58:47;3.37;;;2.13;;
14584;SDS011;7379;51.506;11.876;2023-03-26T08:01:33;2.60;;;2.03;;
14584;SDS011;7379;51.506;11.876;2023-03-26T08:04:13;6.90;;;2.40;;
14584;SDS011;7379;51.506;11.876;2023-03-26T08:06:54;2.70;;;2.00;;
14584;SDS011;7379;51.506;11.876;2023-03-26T08:09:26;2.80;;;1.87;;
14584;SDS011;7379;51.506;11.876;2023-03-26T08:12:00;3.63;;;2.20;;
14584;SDS011;7379;51.506;11.876;2023-03-26T08:14:38;4.53;;;2.17;;
14584;SDS011;7379;51.506;11.876;2023-03-26T08:17:12;4.40;;;2.20;;
14584;SDS011;7379;51.506;11.876;2023-03-26T08:19:44;4.60;;;2.30;;
14584;SDS011;7379;51.506;11.876;2023-03-26T08:22:22;4.00;;;2.17;;
14584;SDS011;7379;51.506;11.876;2023-03-26T08:25:08;5.17;;;2.70;;
14584;SDS011;7379;51.506;11.876;2023-03-26T08:27:46;5.13;;;2.83;;
14584;SDS011;7379;51.506;11.876;2023-03-26T08:30:21;5.90;;;2.75;;
14584;SDS011;7379;51.506;11.876;2023-03-26T08:32:52;7.57;;;3.03;;
14584;SDS011;7379;51.506;11.876;2023-03-26T08:35:21;7.13;;;2.70;;
14584;SDS011;7379;51.506;11.876;2023-03-26T08:37:49;6.20;;;2.67;;
14584;SDS011;7379;51.506;11.876;2023-03-26T08:40:18;7.17;;;2.80;;
14584;SDS011;7379;51.506;11.876;2023-03-26T08:43:06;4.75;;;2.60;;
14584;SDS011;7379;51.506;11.876;2023-03-26T08:45:55;7.38;;;2.70;;
14584;SDS011;7379;51.506;11.876;2023-03-26T08:48:39;6.73;;;2.40;;
14584;SDS011;7379;51.506;11.876;2023-03-26T08:51:40;4.27;;;2.53;;
14584;SDS011;7379;51.506;11.876;2023-03-26T08:54:44;6.43;;;3.00;;
14584;SDS011;7379;51.506;11.876;2023-03-26T09:00:30;7.75;;;2.97;;
14584;SDS011;7379;51.506;11.876;2023-03-26T09:03:27;9.80;;;3.40;;
14584;SDS011;7379;51.506;11.876;2023-03-26T09:06:21;4.45;;;2.85;;
14584;SDS011;7379;51.506;11.876;2023-03-26T09:09:18;6.25;;;3.30;;
14584;SDS011;7379;51.506;11.876;2023-03-26T09:12:20;7.65;;;3.10;;
14584;SDS011;7379;51.506;11.876;2023-03-26T09:26:58;9.80;;;3.60;;
14584;SDS011;7379;51.506;11.876;2023-03-26T09:29:47;8.70;;;3.58;;
14584;SDS011;7379;51.506;11.876;2023-03-26T09:35:50;10.07;;;3.70;;
14584;SDS011;7379;51.506;11.876;2023-03-26T09:38:39;5.68;;;3.08;;
14584;SDS011;7379;51.506;11.876;2023-03-26T09:41:12;9.05;;;3.60;;
14584;SDS011;7379;51.506;11.876;2023-03-26T09:43:46;5.95;;;3.30;;
14584;SDS011;7379;51.506;11.876;2023-03-26T09:46:51;10.73;;;4.03;;
14584;SDS011;7379;51.506;11.876;2023-03-26T09:49:37;7.17;;;3.67;;
14584;SDS011;7379;51.506;11.876;2023-03-26T09:55:11;10.23;;;3.60;;
14584;SDS011;7379;51.506;11.876;2023-03-26T09:58:28;9.80;;;3.73;;
14584;SDS011;7379;51.506;11.876;2023-03-26T10:01:04;6.72;;;4.00;;
14584;SDS011;7379;51.506;11.876;2023-03-26T10:03:39;8.55;;;3.85;;
14584;SDS011;7379;51.506;11.876;2023-03-26T10:06:13;6.82;;;4.03;;
14584;SDS011;7379;51.506;11.876;2023-03-26T10:09:01;7.57;;;4.00;;
14584;SDS011;7379;51.506;11.876;2023-03-26T10:11:38;8.03;;;4.10;;
14584;SDS011;7379;51.506;11.876;2023-03-26T10:14:18;9.87;;;4.03;;
14584;SDS011;7379;51.506;11.876;2023-03-26T10:16:54;8.60;;;3.97;;
14584;SDS011;7379;51.506;11.876;2023-03-26T10:19:40;8.82;;;4.00;;
14584;SDS011;7379;51.506;11.876;2023-03-26T10:22:18;8.77;;;3.88;;
14584;SDS011;7379;51.506;11.876;2023-03-26T10:25:00;7.30;;;3.70;;
14584;SDS011;7379;51.506;11.876;2023-03-26T10:27:54;8.13;;;3.72;;
14584;SDS011;7379;51.506;11.876;2023-03-26T10:30:41;7.28;;;3.88;;
14584;SDS011;7379;51.506;11.876;2023-03-26T10:33:19;6.30;;;3.42;;
14584;SDS011;7379;51.506;11.876;2023-03-26T10:36:01;9.47;;;3.90;;
14584;SDS011;7379;51.506;11.876;2023-03-26T10:38:45;8.93;;;3.70;;
14584;SDS011;7379;51.506;11.876;2023-03-26T10:41:32;9.88;;;3.80;;
14584;SDS011;7379;51.506;11.876;2023-03-26T10:47:13;7.90;;;3.67;;
14584;SDS011;7379;51.506;11.876;2023-03-26T10:50:07;6.97;;;3.50;;
14584;SDS011;7379;51.506;11.876;2023-03-26T10:52:52;7.50;;;3.97;;
14584;SDS011;7379;51.506;11.876;2023-03-26T10:55:26;5.82;;;3.30;;
14584;SDS011;7379;51.506;11.876;2023-03-26T10:57:57;6.20;;;3.97;;
14584;SDS011;7379;51.506;11.876;2023-03-26T11:00:29;7.45;;;4.10;;
14584;SDS011;7379;51.506;11.876;2023-03-26T11:03:08;7.90;;;4.05;;
14584;SDS011;7379;51.506;11.876;2023-03-26T11:05:46;10.07;;;4.15;;
14584;SDS011;7379;51.506;11.876;2023-03-26T11:08:20;8.27;;;3.63;;
14584;SDS011;7379;51.506;11.876;2023-03-26T11:10:55;4.90;;;3.47;;
14584;SDS011;7379;51.506;11.876;2023-03-26T11:13:31;6.35;;;3.72;;
14584;SDS011;7379;51.506;11.876;2023-03-26T11:16:08;8.55;;;3.80;;
14584;SDS011;7379;51.506;11.876;2023-03-26T11:18:41;8.07;;;3.70;;
14584;SDS011;7379;51.506;11.876;2023-03-26T11:21:15;7.50;;;3.65;;
14584;SDS011;7379;51.506;11.876;2023-03-26T11:23:51;7.82;;;3.75;;
14584;SDS011;7379;51.506;11.876;2023-03-26T11:26:28;7.10;;;3.53;;
14584;SDS011;7379;51.506;11.876;2023-03-26T11:29:11;9.68;;;3.85;;
14584;SDS011;7379;51.506;11.876;2023-03-26T11:31:59;7.45;;;3.97;;
14584;SDS011;7379;51.506;11.876;2023-03-26T11:34:31;7.20;;;3.97;;
14584;SDS011;7379;51.506;11.876;2023-03-26T11:37:03;9.20;;;3.80;;
14584;SDS011;7379;51.506;11.876;2023-03-26T11:39:39;7.40;;;3.60;;
14584;SDS011;7379;51.506;11.876;2023-03-26T11:42:09;11.02;;;3.88;;
14584;SDS011;7379;51.506;11.876;2023-03-26T11:44:40;9.65;;;3.92;;
14584;SDS011;7379;51.506;11.876;2023-03-26T11:47:12;8.00;;;3.40;;
14584;SDS011;7379;51.506;11.876;2023-03-26T11:49:44;6.70;;;3.38;;
14584;SDS011;7379;51.506;11.876;2023-03-26T11:52:14;6.75;;;3.30;;
14584;SDS011;7379;51.506;11.876;2023-03-26T11:54:42;6.85;;;3.28;;
14584;SDS011;7379;51.506;11.876;2023-03-26T11:57:12;6.63;;;3.33;;
14584;SDS011;7379;51.506;11.876;2023-03-26T11:59:45;10.48;;;3.75;;
14584;SDS011;7379;51.506;11.876;2023-03-26T12:02:19;8.00;;;3.50;;
14584;SDS011;7379;51.506;11.876;2023-03-26T12:04:53;8.52;;;3.58;;
14584;SDS011;7379;51.506;11.876;2023-03-26T12:07:36;8.85;;;3.38;;
14584;SDS011;7379;51.506;11.876;2023-03-26T12:10:21;7.05;;;3.20;;
14584;SDS011;7379;51.506;11.876;2023-03-26T12:12:54;8.25;;;2.95;;
14584;SDS011;7379;51.506;11.876;2023-03-26T12:15:23;6.85;;;3.25;;
14584;SDS011;7379;51.506;11.876;2023-03-26T12:17:51;7.25;;;3.13;;
14584;SDS011;7379;51.506;11.876;2023-03-26T12:20:25;6.38;;;3.00;;
14584;SDS011;7379;51.506;11.876;2023-03-26T12:22:57;5.05;;;3.05;;
14584;SDS011;7379;51.506;11.876;2023-03-26T12:25:27;5.30;;;2.88;;
14584;SDS011;7379;51.506;11.876;2023-03-26T12:27:56;5.38;;;3.05;;
14584;SDS011;7379;51.506;11.876;2023-03-26T12:30:27;7.50;;;2.92;;
14584;SDS011;7379;51.506;11.876;2023-03-26T12:32:58;5.30;;;2.72;;
14584;SDS011;7379;51.506;11.876;2023-03-26T12:35:28;7.68;;;2.95;;
14584;SDS011;7379;51.506;11.876;2023-03-26T12:38:14;7.18;;;2.58;;
14584;SDS011;7379;51.506;11.876;2023-03-26T12:40:48;6.00;;;2.85;;
14584;SDS011;7379;51.506;11.876;2023-03-26T12:43:30;7.43;;;2.67;;
14584;SDS011;7379;51.506;11.876;2023-03-26T12:46:09;6.50;;;2.78;;
14584;SDS011;7379;51.506;11.876;2023-03-26T12:48:47;7.50;;;2.95;;
14584;SDS011;7379;51.506;11.876;2023-03-26T12:51:16;5.80;;;2.70;;
14584;SDS011;7379;51.506;11.876;2023-03-26T12:53:51;5.20;;;2.67;;
14584;SDS011;7379;51.506;11.876;2023-03-26T12:56:29;4.88;;;2.78;;
14584;SDS011;7379;51.506;11.876;2023-03-26T13:02:05;6.40;;;2.70;;
14584;SDS011;7379;51.506;11.876;2023-03-26T13:04:53;5.18;;;2.75;;
14584;SDS011;7379;51.506;11.876;2023-03-26T13:07:28;6.05;;;2.63;;
14584;SDS011;7379;51.506;11.876;2023-03-26T13:10:11;6.10;;;2.75;;
14584;SDS011;7379;51.506;11.876;2023-03-26T13:12:53;7.82;;;3.00;;
14584;SDS011;7379;51.506;11.876;2023-03-26T13:15:29;5.63;;;2.83;;
14584;SDS011;7379;51.506;11.876;2023-03-26T13:18:04;6.25;;;2.85;;
14584;SDS011;7379;51.506;11.876;2023-03-26T13:20:48;6.68;;;2.92;;
14584;SDS011;7379;51.506;11.876;2023-03-26T13:23:22;6.30;;;2.72;;
14584;SDS011;7379;51.506;11.876;2023-03-26T13:26:03;5.82;;;2.33;;
14584;SDS011;7379;51.506;11.876;2023-03-26T13:28:44;5.93;;;2.50;;
14584;SDS011;7379;51.506;11.876;2023-03-26T13:31:18;6.95;;;2.80;;
14584;SDS011;7379;51.506;11.876;2023-03-26T13:33:52;6.13;;;2.70;;
14584;SDS011;7379;51.506;11.876;2023-03-26T13:36:27;5.18;;;2.33;;
14584;SDS011;7379;51.506;11.876;2023-03-26T13:39:05;6.60;;;2.67;;
14584;SDS011;7379;51.506;11.876;2023-03-26T13:41:57;4.80;;;2.10;;
14584;SDS011;7379;51.506;11.876;2023-03-26T13:44:50;6.13;;;2.40;;
14584;SDS011;7379;51.506;11.876;2023-03-26T13:47:25;5.20;;;2.33;;
14584;SDS011;7379;51.506;11.876;2023-03-26T13:49:56;4.88;;;2.15;;
14584;SDS011;7379;51.506;11.876;2023-03-26T13:52:29;5.97;;;2.65;;
14584;SDS011;7379;51.506;11.876;2023-03-26T13:55:06;5.95;;;2.30;;
14584;SDS011;7379;51.506;11.876;2023-03-26T13:57:45;4.63;;;1.92;;
14584;SDS011;7379;51.506;11.876;2023-03-26T14:00:19;4.00;;;2.30;;
14584;SDS011;7379;51.506;11.876;2023-03-26T14:02:52;5.00;;;2.03;;
14584;SDS011;7379;51.506;11.876;2023-03-26T14:05:24;5.68;;;2.20;;
14584;SDS011;7379;51.506;11.876;2023-03-26T14:07:56;3.97;;;2.10;;
14584;SDS011;7379;51.506;11.876;2023-03-26T14:10:30;2.97;;;2.00;;
14584;SDS011;7379;51.506;11.876;2023-03-26T14:13:03;3.88;;;2.00;;
14584;SDS011;7379;51.506;11.876;2023-03-26T14:15:39;3.60;;;1.90;;
14584;SDS011;7379;51.506;11.876;2023-03-26T14:18:12;4.38;;;2.00;;
14584;SDS011;7379;51.506;11.876;2023-03-26T14:24:10;3.28;;;1.90;;
14584;SDS011;7379;51.506;11.876;2023-03-26T14:26:56;4.30;;;1.90;;
14584;SDS011;7379;51.506;11.876;2023-03-26T14:29:30;5.10;;;2.30;;
14584;SDS011;7379;51.506;11.876;2023-03-26T14:32:18;4.75;;;2.13;;
14584;SDS011;7379;51.506;11.876;2023-03-26T14:35:06;3.80;;;1.90;;
14584;SDS011;7379;51.506;11.876;2023-03-26T14:38:04;3.25;;;1.85;;
14584;SDS011;7379;51.506;11.876;2023-03-26T14:40:57;3.72;;;1.90;;
14584;SDS011;7379;51.506;11.876;2023-03-26T14:52:45;2.72;;;1.92;;
14584;SDS011;7379;51.506;11.876;2023-03-26T14:55:15;5.63;;;1.80;;
14584;SDS011;7379;51.506;11.876;2023-03-26T14:57:57;2.47;;;1.60;;
14584;SDS011;7379;51.506;11.876;2023-03-26T15:00:54;3.72;;;1.80;;
14584;SDS011;7379;51.506;11.876;2023-03-26T15:04:03;2.63;;;1.70;;
14584;SDS011;7379;51.506;11.876;2023-03-26T15:12:59;2.08;;;1.63;;
14584;SDS011;7379;51.506;11.876;2023-03-26T15:34:29;3.80;;;2.00;;
14584;SDS011;7379;51.506;11.876;2023-03-26T15:40:28;2.97;;;2.40;;
14584;SDS011;7379;51.506;11.876;2023-03-26T15:43:12;4.25;;;2.58;;
14584;SDS011;7379;51.506;11.876;2023-03-26T15:45:41;4.28;;;2.50;;
14584;SDS011;7379;51.506;11.876;2023-03-26T15:51:13;5.63;;;2.90;;
14584;SDS011;7379;51.506;11.876;2023-03-26T15:53:58;5.55;;;3.22;;
14584;SDS011;7379;51.506;11.876;2023-03-26T15:56:40;3.80;;;3.00;;
14584;SDS011;7379;51.506;11.876;2023-03-26T15:59:21;4.75;;;3.53;;
14584;SDS011;7379;51.506;11.876;2023-03-26T16:02:01;4.57;;;4.00;;
14584;SDS011;7379;51.506;11.876;2023-03-26T16:04:42;4.28;;;3.80;;
14584;SDS011;7379;51.506;11.876;2023-03-26T16:07:23;5.67;;;4.47;;
14584;SDS011;7379;51.506;11.876;2023-03-26T16:10:12;5.18;;;4.10;;
14584;SDS011;7379;51.506;11.876;2023-03-26T16:12:52;4.85;;;3.85;;
14584;SDS011;7379;51.506;11.876;2023-03-26T16:15:26;4.87;;;3.70;;
14584;SDS011;7379;51.506;11.876;2023-03-26T16:18:14;5.15;;;3.58;;
14584;SDS011;7379;51.506;11.876;2023-03-26T16:20:50;4.70;;;3.45;;
14584;SDS011;7379;51.506;11.876;2023-03-26T16:23:19;4.03;;;3.35;;
14584;SDS011;7379;51.506;11.876;2023-03-26T16:25:53;3.50;;;3.20;;
14584;SDS011;7379;51.506;11.876;2023-03-26T16:28:29;3.63;;;3.30;;
14584;SDS011;7379;51.506;11.876;2023-03-26T16:34:17;3.28;;;2.90;;
14584;SDS011;7379;51.506;11.876;2023-03-26T16:36:46;4.45;;;2.85;;
14584;SDS011;7379;51.506;11.876;2023-03-26T16:39:20;4.47;;;2.72;;
14584;SDS011;7379;51.506;11.876;2023-03-26T16:41:53;4.40;;;2.67;;